createdAt,value
2023-09-27T00:02:04.154Z,4.95
2023-09-27T00:07:07.701Z,4.97
2023-09-27T00:12:12.538Z,3.17
2023-09-27T00:17:16.010Z,4.85
2023-09-27T00:22:19.431Z,4.90
2023-09-27T00:27:24.189Z,6.43
2023-09-27T00:32:27.771Z,6.88
2023-09-27T00:37:31.201Z,4.18
2023-09-27T00:42:35.952Z,5.38
2023-09-27T00:47:41.047Z,3.58
2023-09-27T00:52:46.265Z,4.80
2023-09-27T00:57:53.063Z,4.95
2023-09-27T01:02:57.364Z,3.10
2023-09-27T01:08:00.863Z,5.78
2023-09-27T01:13:06.759Z,2.97
2023-09-27T01:18:10.301Z,3.85
2023-09-27T01:23:15.181Z,5.15
2023-09-27T01:28:22.200Z,3.85
2023-09-27T01:33:26.827Z,3.05
2023-09-27T01:38:32.408Z,5.00
2023-09-27T01:43:35.866Z,3.58
2023-09-27T01:48:40.598Z,3.53
2023-09-27T01:53:45.417Z,2.45
2023-09-27T01:58:48.805Z,2.97
2023-09-27T02:03:52.413Z,2.22
2023-09-27T02:08:57.236Z,3.40
2023-09-27T02:14:05.196Z,3.20
2023-09-27T02:19:08.663Z,2.20
2023-09-27T02:24:13.907Z,4.38
2023-09-27T02:29:17.781Z,4.32
2023-09-27T02:34:21.213Z,3.58
2023-09-27T02:39:27.576Z,2.72
2023-09-27T02:44:32.317Z,2.45
2023-09-27T02:49:36.887Z,2.72
2023-09-27T02:54:41.678Z,5.30
2023-09-27T02:59:45.110Z,2.45
2023-09-27T03:04:49.082Z,2.92
2023-09-27T03:09:54.186Z,4.97
2023-09-27T03:14:57.708Z,3.88
2023-09-27T03:20:01.295Z,3.55
2023-09-27T03:25:08.733Z,6.20
2023-09-27T03:30:12.946Z,3.00
2023-09-27T03:35:18.514Z,4.00
2023-09-27T03:40:23.410Z,2.03
2023-09-27T03:45:27.386Z,2.63
2023-09-27T03:50:32.008Z,6.35
2023-09-27T03:55:37.084Z,2.17
2023-09-27T04:00:41.520Z,3.28
2023-09-27T04:05:44.985Z,3.90
2023-09-27T04:10:50.138Z,3.83
2023-09-27T04:15:53.574Z,4.93
2023-09-27T04:20:57.040Z,5.43
2023-09-27T04:26:01.947Z,4.50
2023-09-27T04:31:05.449Z,5.60
2023-09-27T04:36:11.351Z,3.65
2023-09-27T04:41:20.917Z,2.55
2023-09-27T04:46:24.392Z,1.80
2023-09-27T04:51:27.807Z,3.47
2023-09-27T04:56:33.085Z,3.88
2023-09-27T05:01:36.517Z,3.25
2023-09-27T05:06:39.929Z,2.03
2023-09-27T05:11:47.031Z,2.00
2023-09-27T05:16:50.567Z,1.75
2023-09-27T05:21:54.586Z,1.40
2023-09-27T05:27:00.606Z,4.40
2023-09-27T05:32:04.595Z,3.90
2023-09-27T05:37:08.069Z,3.55
2023-09-27T05:42:12.848Z,2.72
2023-09-27T05:47:16.783Z,5.22
2023-09-27T05:52:20.304Z,4.10
2023-09-27T05:57:25.653Z,2.60
2023-09-27T06:02:32.883Z,2.10
2023-09-27T06:12:41.237Z,4.45
2023-09-27T06:17:44.770Z,4.10
2023-09-27T06:22:50.507Z,4.00
2023-09-27T06:27:55.354Z,2.25
2023-09-27T06:32:58.879Z,2.70
2023-09-27T06:38:02.695Z,2.72
2023-09-27T06:43:07.568Z,4.18
2023-09-27T06:48:11.443Z,4.63
2023-09-27T06:53:22.704Z,6.10
2023-09-27T06:58:29.381Z,19.80
2023-09-27T07:03:35.344Z,7.43
2023-09-27T07:08:39.120Z,8.20
2023-09-27T07:13:43.930Z,4.85
2023-09-27T07:18:47.530Z,6.65
2023-09-27T07:23:51.408Z,10.30
2023-09-27T07:28:56.635Z,11.10
2023-09-27T07:34:00.220Z,7.13
2023-09-27T07:39:10.579Z,9.27
2023-09-27T07:44:16.272Z,4.90
2023-09-27T07:49:19.721Z,9.98
2023-09-27T07:54:25.238Z,11.27
2023-09-27T07:59:30.449Z,6.07
2023-09-27T08:04:34.236Z,9.30
2023-09-27T08:14:46.078Z,8.83
2023-09-27T08:19:49.524Z,7.78
2023-09-27T08:24:53.267Z,5.05
2023-09-27T08:29:58.057Z,9.43
2023-09-27T08:35:01.570Z,8.02
2023-09-27T08:40:06.359Z,8.32
2023-09-27T08:45:15.920Z,5.93
2023-09-27T08:50:22.376Z,7.25
2023-09-27T08:55:25.804Z,6.85
2023-09-27T09:00:33.295Z,6.38
2023-09-27T09:10:42.121Z,6.07
2023-09-27T09:15:49.848Z,6.10
2023-09-27T09:20:56.234Z,5.70
2023-09-27T09:26:00.402Z,8.53
2023-09-27T09:31:05.489Z,5.05
2023-09-27T09:36:09.018Z,7.22
2023-09-27T09:41:12.913Z,4.25
2023-09-27T09:46:27.016Z,6.75
2023-09-27T09:51:31.656Z,4.95
2023-09-27T09:56:45.350Z,5.10
2023-09-27T10:02:02.212Z,5.35
2023-09-27T10:07:05.941Z,4.88
2023-09-27T10:12:09.950Z,5.57
2023-09-27T10:17:26.432Z,6.65
2023-09-27T10:22:29.960Z,4.77
2023-09-27T10:28:13.389Z,4.82
2023-09-27T10:33:35.952Z,5.93
2023-09-27T10:39:06.365Z,6.63
2023-09-27T10:44:10.050Z,4.35
2023-09-27T10:49:22.848Z,3.80
2023-09-27T10:54:30.521Z,5.05
2023-09-27T10:59:34.788Z,5.07
2023-09-27T11:04:41.169Z,5.80
2023-09-27T11:09:47.774Z,5.55
2023-09-27T11:14:51.237Z,6.37
2023-09-27T11:19:56.105Z,4.95
2023-09-27T11:24:59.646Z,4.80
2023-09-27T11:30:03.616Z,5.55
2023-09-27T11:35:09.488Z,4.35
2023-09-27T11:40:13.456Z,4.85
2023-09-27T11:45:17.518Z,4.20
2023-09-27T11:50:23.931Z,5.75
2023-09-27T11:55:28.005Z,4.50
2023-09-27T12:00:33.284Z,5.75
2023-09-27T12:05:39.481Z,3.50
2023-09-27T12:10:43.126Z,5.35
2023-09-27T12:15:46.497Z,4.97
2023-09-27T12:20:51.887Z,5.10
2023-09-27T12:25:56.899Z,4.47
2023-09-27T12:31:00.423Z,5.03
2023-09-27T12:36:06.383Z,4.32
2023-09-27T12:41:10.440Z,5.72
2023-09-27T12:46:14.882Z,4.65
2023-09-27T12:51:19.773Z,4.10
2023-09-27T12:56:23.611Z,5.05
2023-09-27T13:01:27.121Z,4.75
2023-09-27T13:06:32.010Z,6.40
2023-09-27T13:11:35.948Z,7.57
2023-09-27T13:16:39.540Z,5.72
2023-09-27T13:21:44.321Z,7.03
2023-09-27T13:26:47.741Z,5.10
2023-09-27T13:31:52.190Z,4.32
2023-09-27T13:36:57.008Z,5.85
2023-09-27T13:42:01.133Z,4.78
2023-09-27T13:47:05.173Z,4.55
2023-09-27T13:52:10.488Z,4.60
2023-09-27T13:57:13.959Z,4.97
2023-09-27T14:02:17.600Z,5.65
2023-09-27T14:07:22.416Z,5.13
2023-09-27T14:12:26.065Z,5.47
2023-09-27T14:17:29.573Z,5.97
2023-09-27T14:22:34.359Z,5.70
2023-09-27T14:27:37.781Z,5.50
2023-09-27T14:32:43.255Z,5.45
2023-09-27T14:38:04.742Z,4.72
2023-09-27T14:43:08.209Z,5.30
2023-09-27T14:48:11.965Z,4.65
2023-09-27T14:53:16.822Z,4.43
2023-09-27T14:58:20.319Z,4.47
2023-09-27T15:03:23.841Z,4.82
2023-09-27T15:08:29.093Z,4.63
2023-09-27T15:13:34.899Z,5.28
2023-09-27T15:18:38.411Z,4.90
2023-09-27T15:23:43.356Z,4.90
2023-09-27T15:28:47.443Z,4.88
2023-09-27T15:33:51.960Z,4.53
2023-09-27T15:38:57.012Z,5.05
2023-09-27T15:44:00.412Z,4.47
2023-09-27T15:49:03.969Z,4.85
2023-09-27T15:54:17.901Z,4.20
2023-09-27T15:59:22.253Z,4.60
2023-09-27T16:04:32.091Z,4.45
2023-09-27T16:09:42.785Z,4.07
2023-09-27T16:14:46.207Z,4.10
2023-09-27T16:19:49.693Z,4.85
2023-09-27T16:24:54.760Z,4.22
2023-09-27T16:29:58.195Z,5.00
2023-09-27T16:35:03.610Z,3.70
2023-09-27T16:40:10.399Z,5.00
2023-09-27T16:45:14.260Z,4.50
2023-09-27T16:50:17.886Z,4.63
2023-09-27T16:55:22.932Z,4.18
2023-09-27T17:00:27.166Z,5.75
2023-09-27T17:05:30.624Z,9.98
2023-09-27T17:10:36.031Z,8.93
2023-09-27T17:15:39.704Z,10.10
2023-09-27T17:20:43.642Z,11.18
2023-09-27T17:25:48.504Z,11.07
2023-09-27T17:30:52.239Z,10.88
2023-09-27T17:35:55.892Z,12.82
2023-09-27T17:41:00.718Z,10.52
2023-09-27T17:46:20.519Z,7.38
2023-09-27T17:51:24.311Z,9.33
2023-09-27T17:56:29.385Z,7.47
2023-09-27T18:01:33.046Z,9.73
2023-09-27T18:06:36.597Z,9.23
2023-09-27T18:11:42.590Z,7.22
2023-09-27T18:16:46.913Z,6.10
2023-09-27T18:21:50.803Z,9.68
2023-09-27T18:26:56.847Z,11.20
2023-09-27T18:32:02.012Z,7.88
2023-09-27T18:37:05.570Z,7.60
2023-09-27T18:42:10.363Z,8.52
2023-09-27T18:47:14.074Z,7.70
2023-09-27T18:52:18.389Z,8.82
2023-09-27T18:57:24.110Z,8.30
2023-09-27T19:02:27.589Z,8.27
2023-09-27T19:07:31.157Z,7.50
2023-09-27T19:12:40.099Z,5.03
2023-09-27T19:17:43.571Z,8.18
2023-09-27T19:29:43.049Z,6.78
2023-09-27T19:40:23.752Z,7.65
2023-09-27T19:45:29.466Z,8.50
2023-09-27T19:50:34.509Z,8.48
2023-09-27T20:02:11.151Z,7.43
2023-09-27T20:13:10.102Z,10.32
2023-09-27T20:18:16.247Z,11.23
2023-09-27T20:23:21.914Z,8.57
2023-09-27T20:28:26.349Z,6.97
2023-09-27T20:33:31.241Z,9.23
2023-09-27T20:45:18.816Z,9.30
2023-09-27T20:50:24.024Z,9.65
2023-09-27T20:55:27.516Z,9.23
2023-09-27T21:00:31.240Z,6.28
2023-09-27T21:05:38.068Z,7.20
2023-09-27T21:10:41.543Z,7.93
2023-09-27T21:15:45.023Z,8.32
2023-09-27T21:20:49.832Z,7.68
2023-09-27T21:25:53.361Z,9.98
2023-09-27T21:30:56.795Z,9.15
2023-09-27T21:36:02.324Z,10.85
2023-09-27T21:41:06.331Z,7.80
2023-09-27T21:46:18.735Z,8.02
2023-09-27T21:51:23.829Z,7.82
2023-09-27T21:56:27.257Z,7.78
2023-09-27T22:01:31.033Z,6.57
2023-09-27T22:06:35.871Z,6.68
2023-09-27T22:11:40.457Z,8.05
2023-09-27T22:16:44.082Z,8.52
2023-09-27T22:21:48.939Z,6.30
2023-09-27T22:26:54.204Z,6.35
2023-09-27T22:31:58.805Z,8.65
2023-09-27T22:37:04.265Z,8.23
2023-09-27T22:42:13.912Z,6.30
2023-09-27T22:47:17.618Z,8.25
2023-09-27T22:52:22.451Z,9.20
2023-09-27T22:57:26.410Z,9.90
2023-09-27T23:02:29.907Z,9.02
2023-09-27T23:07:34.714Z,7.10
2023-09-27T23:12:38.145Z,5.60
2023-09-27T23:18:07.936Z,7.15
2023-09-27T23:23:17.276Z,7.28
2023-09-27T23:28:41.216Z,6.38
2023-09-27T23:33:45.585Z,8.32
2023-09-27T23:38:57.154Z,5.75
2023-09-27T23:44:05.800Z,5.50
2023-09-27T23:49:17.706Z,11.60
2023-09-27T23:54:22.524Z,6.90
2023-09-27T23:59:31.286Z,5.57
